sensor_id;sensor_type;location;lat;lon;timestamp;pressure;altitude;pressure_sealevel;temperature;humidity
74218;BME280;62579;47.288;18.646;2023-11-22T00:01:17;99625.81;;;5.90;100.00
74218;BME280;62579;47.288;18.646;2023-11-22T00:03:43;99632.91;;;5.87;100.00
74218;BME280;62579;47.288;18.646;2023-11-22T00:06:09;99627.06;;;5.89;100.00
74218;BME280;62579;47.288;18.646;2023-11-22T00:08:34;99646.56;;;5.84;100.00
74218;BME280;62579;47.288;18.646;2023-11-22T00:11:00;99647.59;;;5.86;100.00
74218;BME280;62579;47.288;18.646;2023-11-22T00:13:25;99638.47;;;5.84;100.00
74218;BME280;62579;47.288;18.646;2023-11-22T00:15:50;99654.03;;;5.74;100.00
74218;BME280;62579;47.288;18.646;2023-11-22T00:18:16;99650.78;;;5.70;100.00
74218;BME280;62579;47.288;18.646;2023-11-22T00:20:41;99649.97;;;5.64;100.00
74218;BME280;62579;47.288;18.646;2023-11-22T00:23:06;99655.72;;;5.57;100.00
74218;BME280;62579;47.288;18.646;2023-11-22T00:25:32;99659.06;;;5.52;100.00
74218;BME280;62579;47.288;18.646;2023-11-22T00:27:58;99653.41;;;5.50;100.00
74218;BME280;62579;47.288;18.646;2023-11-22T00:30:23;99652.09;;;5.45;100.00
74218;BME280;62579;47.288;18.646;2023-11-22T00:32:48;99655.34;;;5.50;100.00
74218;BME280;62579;47.288;18.646;2023-11-22T00:35:14;99649.84;;;5.44;100.00
74218;BME280;62579;47.288;18.646;2023-11-22T00:37:39;99646.97;;;5.33;100.00
74218;BME280;62579;47.288;18.646;2023-11-22T00:40:05;99647.16;;;5.29;100.00
74218;BME280;62579;47.288;18.646;2023-11-22T00:42:36;99643.72;;;5.29;100.00
74218;BME280;62579;47.288;18.646;2023-11-22T00:45:02;99644.81;;;5.08;100.00
74218;BME280;62579;47.288;18.646;2023-11-22T00:47:30;99641.00;;;5.14;100.00
74218;BME280;62579;47.288;18.646;2023-11-22T00:49:55;99645.94;;;5.16;100.00
74218;BME280;62579;47.288;18.646;2023-11-22T00:52:21;99642.03;;;5.17;100.00
74218;BME280;62579;47.288;18.646;2023-11-22T00:54:47;99650.66;;;5.06;100.00
74218;BME280;62579;47.288;18.646;2023-11-22T00:57:12;99647.97;;;5.06;100.00
74218;BME280;62579;47.288;18.646;2023-11-22T00:59:37;99648.88;;;5.03;100.00
74218;BME280;62579;47.288;18.646;2023-11-22T01:02:02;99648.16;;;5.03;100.00
74218;BME280;62579;47.288;18.646;2023-11-22T01:04:28;99656.69;;;5.01;100.00
74218;BME280;62579;47.288;18.646;2023-11-22T01:06:53;99657.72;;;4.89;100.00
74218;BME280;62579;47.288;18.646;2023-11-22T01:09:18;99663.56;;;4.87;100.00
74218;BME280;62579;47.288;18.646;2023-11-22T01:11:44;99658.03;;;4.82;100.00
74218;BME280;62579;47.288;18.646;2023-11-22T01:14:09;99662.69;;;4.81;100.00
74218;BME280;62579;47.288;18.646;2023-11-22T01:16:34;99670.75;;;4.67;100.00
74218;BME280;62579;47.288;18.646;2023-11-22T01:19:01;99669.25;;;4.66;100.00
74218;BME280;62579;47.288;18.646;2023-11-22T01:21:27;99667.94;;;4.61;100.00
74218;BME280;62579;47.288;18.646;2023-11-22T01:23:52;99670.00;;;4.66;100.00
74218;BME280;62579;47.288;18.646;2023-11-22T01:26:17;99672.53;;;4.70;100.00
74218;BME280;62579;47.288;18.646;2023-11-22T01:28:42;99676.31;;;4.63;100.00
74218;BME280;62579;47.288;18.646;2023-11-22T01:31:10;99675.44;;;4.57;100.00
74218;BME280;62579;47.288;18.646;2023-11-22T01:33:36;99669.72;;;4.64;100.00
74218;BME280;62579;47.288;18.646;2023-11-22T01:36:02;99669.31;;;4.57;100.00
74218;BME280;62579;47.288;18.646;2023-11-22T01:38:27;99681.47;;;4.52;100.00
74218;BME280;62579;47.288;18.646;2023-11-22T01:40:52;99682.22;;;4.53;100.00
74218;BME280;62579;47.288;18.646;2023-11-22T01:43:18;99685.12;;;4.40;100.00
74218;BME280;62579;47.288;18.646;2023-11-22T01:45:43;99689.03;;;4.39;100.00
74218;BME280;62579;47.288;18.646;2023-11-22T01:48:10;99687.53;;;4.38;100.00
74218;BME280;62579;47.288;18.646;2023-11-22T01:50:36;99685.28;;;4.37;100.00
74218;BME280;62579;47.288;18.646;2023-11-22T01:53:01;99679.47;;;4.38;100.00
74218;BME280;62579;47.288;18.646;2023-11-22T01:55:27;99692.00;;;4.41;100.00
74218;BME280;62579;47.288;18.646;2023-11-22T01:57:53;99697.09;;;4.39;100.00
74218;BME280;62579;47.288;18.646;2023-11-22T02:00:18;99694.88;;;4.38;100.00
74218;BME280;62579;47.288;18.646;2023-11-22T02:02:44;99690.81;;;4.42;100.00
74218;BME280;62579;47.288;18.646;2023-11-22T02:05:10;99703.72;;;4.38;100.00
74218;BME280;62579;47.288;18.646;2023-11-22T02:07:36;99696.66;;;4.41;100.00
74218;BME280;62579;47.288;18.646;2023-11-22T02:10:02;99691.72;;;4.39;100.00
74218;BME280;62579;47.288;18.646;2023-11-22T02:12:27;99695.16;;;4.40;100.00
74218;BME280;62579;47.288;18.646;2023-11-22T02:14:53;99697.84;;;4.40;100.00
74218;BME280;62579;47.288;18.646;2023-11-22T02:17:18;99691.72;;;4.39;100.00
74218;BME280;62579;47.288;18.646;2023-11-22T02:19:43;99690.13;;;4.33;100.00
74218;BME280;62579;47.288;18.646;2023-11-22T02:22:08;99698.34;;;4.29;100.00
74218;BME280;62579;47.288;18.646;2023-11-22T02:24:34;99691.16;;;4.35;100.00
74218;BME280;62579;47.288;18.646;2023-11-22T02:26:59;99684.41;;;4.31;100.00
74218;BME280;62579;47.288;18.646;2023-11-22T02:29:25;99691.66;;;4.24;100.00
74218;BME280;62579;47.288;18.646;2023-11-22T02:31:50;99697.31;;;4.27;100.00
74218;BME280;62579;47.288;18.646;2023-11-22T02:34:15;99705.84;;;4.25;100.00
74218;BME280;62579;47.288;18.646;2023-11-22T02:36:43;99703.34;;;4.21;100.00
74218;BME280;62579;47.288;18.646;2023-11-22T02:39:09;99703.63;;;4.23;100.00
74218;BME280;62579;47.288;18.646;2023-11-22T02:41:34;99702.13;;;4.22;100.00
74218;BME280;62579;47.288;18.646;2023-11-22T02:44:00;99710.78;;;4.27;100.00
74218;BME280;62579;47.288;18.646;2023-11-22T02:46:25;99713.00;;;4.28;100.00
74218;BME280;62579;47.288;18.646;2023-11-22T02:48:51;99717.34;;;4.35;100.00
74218;BME280;62579;47.288;18.646;2023-11-22T02:51:17;99710.00;;;4.35;100.00
74218;BME280;62579;47.288;18.646;2023-11-22T02:53:42;99727.66;;;4.36;100.00
74218;BME280;62579;47.288;18.646;2023-11-22T02:56:10;99722.38;;;4.42;100.00
74218;BME280;62579;47.288;18.646;2023-11-22T02:58:35;99724.03;;;4.39;100.00
74218;BME280;62579;47.288;18.646;2023-11-22T03:01:01;99729.41;;;4.48;100.00
74218;BME280;62579;47.288;18.646;2023-11-22T03:03:26;99729.84;;;4.47;100.00
74218;BME280;62579;47.288;18.646;2023-11-22T03:05:52;99738.38;;;4.45;100.00
74218;BME280;62579;47.288;18.646;2023-11-22T03:08:17;99740.59;;;4.56;100.00
74218;BME280;62579;47.288;18.646;2023-11-22T03:10:42;99743.75;;;4.54;100.00
74218;BME280;62579;47.288;18.646;2023-11-22T03:13:07;99744.91;;;4.62;100.00
74218;BME280;62579;47.288;18.646;2023-11-22T03:15:33;99744.91;;;4.62;100.00
74218;BME280;62579;47.288;18.646;2023-11-22T03:17:59;99752.81;;;4.66;100.00
74218;BME280;62579;47.288;18.646;2023-11-22T03:20:24;99752.81;;;4.66;100.00
74218;BME280;62579;47.288;18.646;2023-11-22T03:22:50;99758.38;;;4.62;100.00
74218;BME280;62579;47.288;18.646;2023-11-22T03:25:15;99757.22;;;4.54;100.00
74218;BME280;62579;47.288;18.646;2023-11-22T03:27:40;99759.41;;;4.65;100.00
74218;BME280;62579;47.288;18.646;2023-11-22T03:30:06;99762.72;;;4.60;100.00
74218;BME280;62579;47.288;18.646;2023-11-22T03:32:36;99760.72;;;4.69;100.00
74218;BME280;62579;47.288;18.646;2023-11-22T03:35:03;99767.31;;;4.68;100.00
74218;BME280;62579;47.288;18.646;2023-11-22T03:37:30;99774.94;;;4.70;100.00
74218;BME280;62579;47.288;18.646;2023-11-22T03:39:55;99768.66;;;4.73;100.00
74218;BME280;62579;47.288;18.646;2023-11-22T03:42:20;99771.63;;;4.75;100.00
74218;BME280;62579;47.288;18.646;2023-11-22T03:44:46;99771.16;;;4.76;100.00
74218;BME280;62579;47.288;18.646;2023-11-22T03:47:11;99771.91;;;4.77;100.00
74218;BME280;62579;47.288;18.646;2023-11-22T03:49:38;99777.16;;;4.80;100.00
74218;BME280;62579;47.288;18.646;2023-11-22T03:52:03;99782.06;;;4.82;100.00
74218;BME280;62579;47.288;18.646;2023-11-22T03:54:28;99784.88;;;4.87;100.00
74218;BME280;62579;47.288;18.646;2023-11-22T03:56:53;99798.06;;;4.85;100.00
74218;BME280;62579;47.288;18.646;2023-11-22T03:59:19;99795.34;;;4.95;100.00
74218;BME280;62579;47.288;18.646;2023-11-22T04:01:44;99793.38;;;4.95;100.00
74218;BME280;62579;47.288;18.646;2023-11-22T04:04:09;99797.44;;;4.91;100.00
74218;BME280;62579;47.288;18.646;2023-11-22T04:06:35;99796.53;;;4.94;100.00
74218;BME280;62579;47.288;18.646;2023-11-22T04:09:00;99791.41;;;4.96;100.00
74218;BME280;62579;47.288;18.646;2023-11-22T04:11:26;99795.03;;;4.93;100.00
74218;BME280;62579;47.288;18.646;2023-11-22T04:13:53;99795.47;;;5.00;100.00
74218;BME280;62579;47.288;18.646;2023-11-22T04:16:18;99798.03;;;4.95;100.00
74218;BME280;62579;47.288;18.646;2023-11-22T04:18:43;99799.50;;;4.96;100.00
74218;BME280;62579;47.288;18.646;2023-11-22T04:21:09;99803.09;;;5.02;100.00
74218;BME280;62579;47.288;18.646;2023-11-22T04:23:34;99800.25;;;4.96;100.00
74218;BME280;62579;47.288;18.646;2023-11-22T04:26:00;99806.53;;;5.02;100.00
74218;BME280;62579;47.288;18.646;2023-11-22T04:28:26;99797.06;;;5.07;100.00
74218;BME280;62579;47.288;18.646;2023-11-22T04:30:52;99809.03;;;5.06;100.00
74218;BME280;62579;47.288;18.646;2023-11-22T04:33:17;99798.44;;;5.02;100.00
74218;BME280;62579;47.288;18.646;2023-11-22T04:35:42;99793.72;;;5.12;100.00
74218;BME280;62579;47.288;18.646;2023-11-22T04:38:07;99799.06;;;4.97;100.00
74218;BME280;62579;47.288;18.646;2023-11-22T04:40:33;99806.06;;;5.04;100.00
74218;BME280;62579;47.288;18.646;2023-11-22T04:42:58;99799.91;;;5.03;100.00
74218;BME280;62579;47.288;18.646;2023-11-22T04:45:24;99808.88;;;5.09;100.00
74218;BME280;62579;47.288;18.646;2023-11-22T04:47:49;99806.88;;;5.19;100.00
74218;BME280;62579;47.288;18.646;2023-11-22T04:50:14;99817.59;;;5.28;100.00
74218;BME280;62579;47.288;18.646;2023-11-22T04:52:39;99813.00;;;5.19;100.00
74218;BME280;62579;47.288;18.646;2023-11-22T04:55:05;99819.16;;;5.20;100.00
74218;BME280;62579;47.288;18.646;2023-11-22T04:57:30;99813.41;;;5.27;100.00
74218;BME280;62579;47.288;18.646;2023-11-22T04:59:55;99819.72;;;5.24;100.00
74218;BME280;62579;47.288;18.646;2023-11-22T05:02:21;99826.91;;;5.27;100.00
74218;BME280;62579;47.288;18.646;2023-11-22T05:04:46;99822.34;;;5.33;100.00
74218;BME280;62579;47.288;18.646;2023-11-22T05:07:14;99820.00;;;5.26;100.00
74218;BME280;62579;47.288;18.646;2023-11-22T05:09:39;99837.88;;;5.23;100.00
74218;BME280;62579;47.288;18.646;2023-11-22T05:12:04;99828.66;;;5.30;100.00
74218;BME280;62579;47.288;18.646;2023-11-22T05:14:29;99834.37;;;5.32;100.00
74218;BME280;62579;47.288;18.646;2023-11-22T05:16:55;99835.13;;;5.32;100.00
74218;BME280;62579;47.288;18.646;2023-11-22T05:19:21;99837.62;;;5.36;100.00
74218;BME280;62579;47.288;18.646;2023-11-22T05:21:47;99839.19;;;5.28;100.00
74218;BME280;62579;47.288;18.646;2023-11-22T05:24:12;99835.84;;;5.33;100.00
74218;BME280;62579;47.288;18.646;2023-11-22T05:26:37;99841.81;;;5.37;100.00
74218;BME280;62579;47.288;18.646;2023-11-22T05:29:03;99837.81;;;5.32;100.00
74218;BME280;62579;47.288;18.646;2023-11-22T05:31:30;99842.47;;;5.32;100.00
74218;BME280;62579;47.288;18.646;2023-11-22T05:33:55;99841.53;;;5.35;100.00
74218;BME280;62579;47.288;18.646;2023-11-22T05:36:20;99849.66;;;5.35;100.00
74218;BME280;62579;47.288;18.646;2023-11-22T05:38:46;99858.00;;;5.37;100.00
74218;BME280;62579;47.288;18.646;2023-11-22T05:41:11;99864.31;;;5.34;100.00
74218;BME280;62579;47.288;18.646;2023-11-22T05:43:37;99877.81;;;5.34;100.00
74218;BME280;62579;47.288;18.646;2023-11-22T05:46:03;99867.78;;;5.34;100.00
74218;BME280;62579;47.288;18.646;2023-11-22T05:48:28;99870.63;;;5.31;100.00
74218;BME280;62579;47.288;18.646;2023-11-22T05:50:54;99874.31;;;5.42;100.00
74218;BME280;62579;47.288;18.646;2023-11-22T05:53:19;99884.13;;;5.31;100.00
74218;BME280;62579;47.288;18.646;2023-11-22T05:55:48;99891.94;;;5.29;100.00
74218;BME280;62579;47.288;18.646;2023-11-22T05:58:14;99892.31;;;5.45;100.00
74218;BME280;62579;47.288;18.646;2023-11-22T06:00:45;99890.84;;;5.35;100.00
74218;BME280;62579;47.288;18.646;2023-11-22T06:03:13;99897.59;;;5.40;100.00
74218;BME280;62579;47.288;18.646;2023-11-22T06:05:39;99905.22;;;5.41;100.00
74218;BME280;62579;47.288;18.646;2023-11-22T06:08:05;99904.13;;;5.48;100.00
74218;BME280;62579;47.288;18.646;2023-11-22T06:10:30;99911.06;;;5.40;100.00
74218;BME280;62579;47.288;18.646;2023-11-22T06:12:55;99917.91;;;5.50;100.00
74218;BME280;62579;47.288;18.646;2023-11-22T06:15:21;99919.44;;;5.42;100.00
74218;BME280;62579;47.288;18.646;2023-11-22T06:17:47;99932.59;;;5.49;100.00
74218;BME280;62579;47.288;18.646;2023-11-22T06:20:13;99930.00;;;5.55;100.00
74218;BME280;62579;47.288;18.646;2023-11-22T06:22:39;99937.88;;;5.43;100.00
74218;BME280;62579;47.288;18.646;2023-11-22T06:25:07;99941.59;;;5.46;100.00
74218;BME280;62579;47.288;18.646;2023-11-22T06:27:33;99941.16;;;5.47;100.00
74218;BME280;62579;47.288;18.646;2023-11-22T06:29:58;99946.97;;;5.55;100.00
74218;BME280;62579;47.288;18.646;2023-11-22T06:32:23;99961.00;;;5.35;100.00
74218;BME280;62579;47.288;18.646;2023-11-22T06:34:49;99965.31;;;5.42;100.00
74218;BME280;62579;47.288;18.646;2023-11-22T06:37:14;99974.62;;;5.41;100.00
74218;BME280;62579;47.288;18.646;2023-11-22T06:39:39;99978.34;;;5.43;100.00
74218;BME280;62579;47.288;18.646;2023-11-22T06:42:05;99983.31;;;5.45;100.00
74218;BME280;62579;47.288;18.646;2023-11-22T06:44:31;99984.34;;;5.47;100.00
74218;BME280;62579;47.288;18.646;2023-11-22T06:46:57;99996.69;;;5.39;100.00
74218;BME280;62579;47.288;18.646;2023-11-22T06:49:22;100003.13;;;5.33;100.00
74218;BME280;62579;47.288;18.646;2023-11-22T06:51:47;100010.94;;;5.31;100.00
74218;BME280;62579;47.288;18.646;2023-11-22T06:54:14;100013.37;;;5.20;100.00
74218;BME280;62579;47.288;18.646;2023-11-22T06:56:39;100010.88;;;5.16;100.00
74218;BME280;62579;47.288;18.646;2023-11-22T06:59:04;100018.22;;;5.16;100.00
74218;BME280;62579;47.288;18.646;2023-11-22T07:01:30;100015.34;;;5.19;100.00
74218;BME280;62579;47.288;18.646;2023-11-22T07:03:55;100024.19;;;5.20;100.00
74218;BME280;62579;47.288;18.646;2023-11-22T07:06:20;100029.75;;;5.16;100.00
74218;BME280;62579;47.288;18.646;2023-11-22T07:08:47;100029.78;;;5.07;100.00
74218;BME280;62579;47.288;18.646;2023-11-22T07:11:12;100033.22;;;5.08;100.00
74218;BME280;62579;47.288;18.646;2023-11-22T07:13:38;100036.69;;;4.99;100.00
74218;BME280;62579;47.288;18.646;2023-11-22T07:16:05;100046.38;;;5.06;100.00
74218;BME280;62579;47.288;18.646;2023-11-22T07:18:30;100047.13;;;5.15;100.00
74218;BME280;62579;47.288;18.646;2023-11-22T07:20:57;100052.69;;;5.12;100.00
74218;BME280;62579;47.288;18.646;2023-11-22T07:23:22;100052.06;;;5.17;100.00
74218;BME280;62579;47.288;18.646;2023-11-22T07:25:52;100054.53;;;5.38;100.00
74218;BME280;62579;47.288;18.646;2023-11-22T07:28:17;100067.00;;;5.36;100.00
74218;BME280;62579;47.288;18.646;2023-11-22T07:30:42;100070.59;;;5.42;100.00
74218;BME280;62579;47.288;18.646;2023-11-22T07:33:08;100072.81;;;5.43;100.00
74218;BME280;62579;47.288;18.646;2023-11-22T07:35:33;100077.91;;;5.51;100.00
74218;BME280;62579;47.288;18.646;2023-11-22T07:37:59;100078.81;;;5.47;100.00
74218;BME280;62579;47.288;18.646;2023-11-22T07:40:24;100073.91;;;5.37;100.00
74218;BME280;62579;47.288;18.646;2023-11-22T07:42:49;100082.41;;;5.44;100.00
74218;BME280;62579;47.288;18.646;2023-11-22T07:45:14;100090.94;;;5.52;100.00
74218;BME280;62579;47.288;18.646;2023-11-22T07:47:40;100091.81;;;5.58;100.00
74218;BME280;62579;47.288;18.646;2023-11-22T07:50:09;100091.34;;;5.69;100.00
74218;BME280;62579;47.288;18.646;2023-11-22T07:52:36;100083.84;;;5.64;100.00
74218;BME280;62579;47.288;18.646;2023-11-22T07:55:03;100090.38;;;5.81;100.00
74218;BME280;62579;47.288;18.646;2023-11-22T07:57:28;100092.78;;;5.79;100.00
74218;BME280;62579;47.288;18.646;2023-11-22T07:59:53;100102.59;;;5.67;100.00
74218;BME280;62579;47.288;18.646;2023-11-22T08:02:20;100098.37;;;5.66;100.00
74218;BME280;62579;47.288;18.646;2023-11-22T08:04:46;100099.91;;;5.58;100.00
74218;BME280;62579;47.288;18.646;2023-11-22T08:07:13;100098.88;;;5.56;100.00
74218;BME280;62579;47.288;18.646;2023-11-22T08:09:38;100097.38;;;5.55;100.00
74218;BME280;62579;47.288;18.646;2023-11-22T08:12:03;100097.56;;;5.51;100.00
74218;BME280;62579;47.288;18.646;2023-11-22T08:14:29;100098.72;;;5.59;100.00
74218;BME280;62579;47.288;18.646;2023-11-22T08:16:55;100099.31;;;5.63;100.00
74218;BME280;62579;47.288;18.646;2023-11-22T08:19:20;100106.66;;;5.63;100.00
74218;BME280;62579;47.288;18.646;2023-11-22T08:21:48;100117.03;;;5.55;100.00
74218;BME280;62579;47.288;18.646;2023-11-22T08:24:13;100116.28;;;5.55;100.00
74218;BME280;62579;47.288;18.646;2023-11-22T08:26:39;100114.00;;;5.62;100.00
74218;BME280;62579;47.288;18.646;2023-11-22T08:29:04;100119.84;;;5.70;100.00
74218;BME280;62579;47.288;18.646;2023-11-22T08:31:30;100128.25;;;5.63;100.00
74218;BME280;62579;47.288;18.646;2023-11-22T08:33:55;100134.09;;;5.61;100.00
74218;BME280;62579;47.288;18.646;2023-11-22T08:36:20;100133.16;;;5.73;100.00
74218;BME280;62579;47.288;18.646;2023-11-22T08:38:46;100133.00;;;5.86;100.00
74218;BME280;62579;47.288;18.646;2023-11-22T08:41:11;100133.72;;;5.86;100.00
74218;BME280;62579;47.288;18.646;2023-11-22T08:43:38;100136.47;;;5.77;100.00
74218;BME280;62579;47.288;18.646;2023-11-22T08:46:03;100135.09;;;5.82;100.00
74218;BME280;62579;47.288;18.646;2023-11-22T08:48:33;100139.72;;;5.81;100.00
74218;BME280;62579;47.288;18.646;2023-11-22T08:50:58;100137.59;;;5.94;100.00
74218;BME280;62579;47.288;18.646;2023-11-22T08:53:23;100148.16;;;5.74;100.00
74218;BME280;62579;47.288;18.646;2023-11-22T08:55:49;100134.16;;;5.94;100.00
74218;BME280;62579;47.288;18.646;2023-11-22T08:58:14;100136.25;;;5.99;100.00
74218;BME280;62579;47.288;18.646;2023-11-22T09:00:40;100140.44;;;6.00;100.00
74218;BME280;62579;47.288;18.646;2023-11-22T09:03:06;100139.69;;;5.99;100.00
74218;BME280;62579;47.288;18.646;2023-11-22T09:05:32;100139.47;;;6.12;100.00
74218;BME280;62579;47.288;18.646;2023-11-22T09:07:57;100142.19;;;6.12;100.00
74218;BME280;62579;47.288;18.646;2023-11-22T09:10:24;100145.13;;;6.23;100.00
74218;BME280;62579;47.288;18.646;2023-11-22T09:12:49;100146.97;;;6.41;100.00
74218;BME280;62579;47.288;18.646;2023-11-22T09:15:14;100152.56;;;6.37;100.00
74218;BME280;62579;47.288;18.646;2023-11-22T09:17:44;100161.25;;;6.41;100.00
74218;BME280;62579;47.288;18.646;2023-11-22T09:20:11;100157.50;;;6.39;100.00
74218;BME280;62579;47.288;18.646;2023-11-22T09:22:40;100163.78;;;6.45;100.00
74218;BME280;62579;47.288;18.646;2023-11-22T09:25:09;100164.41;;;6.40;100.00
74218;BME280;62579;47.288;18.646;2023-11-22T09:27:36;100170.78;;;6.51;100.00
74218;BME280;62579;47.288;18.646;2023-11-22T09:30:02;100185.00;;;6.61;100.00
74218;BME280;62579;47.288;18.646;2023-11-22T09:32:27;100195.03;;;6.70;100.00
74218;BME280;62579;47.288;18.646;2023-11-22T09:34:53;100192.25;;;6.79;100.00
74218;BME280;62579;47.288;18.646;2023-11-22T09:37:22;100193.75;;;6.80;100.00
74218;BME280;62579;47.288;18.646;2023-11-22T09:39:48;100186.69;;;6.97;100.00
74218;BME280;62579;47.288;18.646;2023-11-22T09:42:13;100191.41;;;7.11;100.00
74218;BME280;62579;47.288;18.646;2023-11-22T09:44:38;100197.25;;;6.95;100.00
74218;BME280;62579;47.288;18.646;2023-11-22T09:47:04;100201.25;;;6.99;100.00
74218;BME280;62579;47.288;18.646;2023-11-22T09:49:30;100198.75;;;6.96;100.00
74218;BME280;62579;47.288;18.646;2023-11-22T09:51:56;100192.47;;;6.90;100.00
74218;BME280;62579;47.288;18.646;2023-11-22T09:54:25;100197.88;;;6.90;100.00
74218;BME280;62579;47.288;18.646;2023-11-22T09:56:54;100194.28;;;7.07;100.00
74218;BME280;62579;47.288;18.646;2023-11-22T09:59:20;100204.88;;;7.20;100.00
74218;BME280;62579;47.288;18.646;2023-11-22T10:01:48;100209.38;;;7.38;100.00
74218;BME280;62579;47.288;18.646;2023-11-22T10:04:13;100204.72;;;7.38;100.00
74218;BME280;62579;47.288;18.646;2023-11-22T10:06:39;100205.38;;;7.48;100.00
74218;BME280;62579;47.288;18.646;2023-11-22T10:09:06;100203.88;;;7.61;100.00
74218;BME280;62579;47.288;18.646;2023-11-22T10:11:33;100202.19;;;7.64;100.00
74218;BME280;62579;47.288;18.646;2023-11-22T10:13:58;100195.19;;;7.57;100.00
74218;BME280;62579;47.288;18.646;2023-11-22T10:16:24;100196.31;;;7.65;100.00
74218;BME280;62579;47.288;18.646;2023-11-22T10:18:49;100198.00;;;7.63;99.76
74218;BME280;62579;47.288;18.646;2023-11-22T10:23:49;100196.97;;;7.75;100.00
74218;BME280;62579;47.288;18.646;2023-11-22T10:26:16;100205.75;;;7.70;100.00
74218;BME280;62579;47.288;18.646;2023-11-22T10:28:42;100203.41;;;7.77;99.56
74218;BME280;62579;47.288;18.646;2023-11-22T10:31:10;100204.81;;;7.87;98.64
74218;BME280;62579;47.288;18.646;2023-11-22T10:33:39;100205.75;;;7.84;99.40
74218;BME280;62579;47.288;18.646;2023-11-22T10:36:06;100213.31;;;7.95;99.67
74218;BME280;62579;47.288;18.646;2023-11-22T10:38:32;100224.91;;;7.81;98.21
74218;BME280;62579;47.288;18.646;2023-11-22T10:40:58;100225.84;;;7.93;98.51
74218;BME280;62579;47.288;18.646;2023-11-22T10:43:24;100229.50;;;7.90;97.62
74218;BME280;62579;47.288;18.646;2023-11-22T10:45:51;100233.13;;;7.86;97.07
74218;BME280;62579;47.288;18.646;2023-11-22T10:48:18;100241.34;;;7.92;97.13
74218;BME280;62579;47.288;18.646;2023-11-22T10:50:45;100243.13;;;7.80;97.28
74218;BME280;62579;47.288;18.646;2023-11-22T10:53:18;100256.75;;;7.86;96.99
74218;BME280;62579;47.288;18.646;2023-11-22T10:55:46;100256.22;;;7.82;97.87
74218;BME280;62579;47.288;18.646;2023-11-22T10:58:12;100253.97;;;7.95;96.38
74218;BME280;62579;47.288;18.646;2023-11-22T11:00:39;100243.69;;;7.99;96.71
74218;BME280;62579;47.288;18.646;2023-11-22T11:03:17;100246.28;;;8.08;96.20
74218;BME280;62579;47.288;18.646;2023-11-22T11:05:45;100254.78;;;8.16;93.65
74218;BME280;62579;47.288;18.646;2023-11-22T11:08:14;100256.78;;;8.30;94.10
74218;BME280;62579;47.288;18.646;2023-11-22T11:10:42;100260.03;;;8.34;94.27
74218;BME280;62579;47.288;18.646;2023-11-22T11:13:08;100270.69;;;8.37;92.91
74218;BME280;62579;47.288;18.646;2023-11-22T11:15:37;100273.41;;;8.37;92.64
74218;BME280;62579;47.288;18.646;2023-11-22T11:18:03;100265.53;;;8.39;92.56
74218;BME280;62579;47.288;18.646;2023-11-22T11:20:33;100279.16;;;8.45;91.65
74218;BME280;62579;47.288;18.646;2023-11-22T11:23:11;100269.06;;;8.45;91.52
74218;BME280;62579;47.288;18.646;2023-11-22T11:25:36;100274.53;;;8.31;91.53
74218;BME280;62579;47.288;18.646;2023-11-22T11:28:03;100282.25;;;8.23;92.13
74218;BME280;62579;47.288;18.646;2023-11-22T11:30:44;100296.28;;;8.36;90.42
74218;BME280;62579;47.288;18.646;2023-11-22T11:33:14;100294.34;;;8.37;90.57
74218;BME280;62579;47.288;18.646;2023-11-22T11:35:51;100298.66;;;8.29;91.98
74218;BME280;62579;47.288;18.646;2023-11-22T11:38:19;100299.66;;;8.31;91.14
74218;BME280;62579;47.288;18.646;2023-11-22T11:40:51;100299.66;;;8.17;90.69
74218;BME280;62579;47.288;18.646;2023-11-22T11:46:06;100305.34;;;8.04;92.46
74218;BME280;62579;47.288;18.646;2023-11-22T11:48:33;100304.44;;;7.93;92.67
74218;BME280;62579;47.288;18.646;2023-11-22T11:50:58;100298.44;;;7.88;91.54
74218;BME280;62579;47.288;18.646;2023-11-22T11:53:23;100298.34;;;7.98;91.98
74218;BME280;62579;47.288;18.646;2023-11-22T11:55:48;100298.28;;;8.07;90.40
74218;BME280;62579;47.288;18.646;2023-11-22T11:58:16;100298.28;;;8.07;90.55
74218;BME280;62579;47.288;18.646;2023-11-22T12:00:42;100310.97;;;8.01;91.32
74218;BME280;62579;47.288;18.646;2023-11-22T12:03:07;100299.38;;;7.85;90.77
74218;BME280;62579;47.288;18.646;2023-11-22T12:05:35;100315.81;;;7.97;90.64
74218;BME280;62579;47.288;18.646;2023-11-22T12:08:00;100322.28;;;7.84;89.87
74218;BME280;62579;47.288;18.646;2023-11-22T12:10:25;100322.81;;;7.88;90.60
74218;BME280;62579;47.288;18.646;2023-11-22T12:12:50;100320.22;;;7.94;91.43
74218;BME280;62579;47.288;18.646;2023-11-22T12:15:17;100330.03;;;7.77;90.42
74218;BME280;62579;47.288;18.646;2023-11-22T12:17:42;100327.59;;;7.79;89.95
74218;BME280;62579;47.288;18.646;2023-11-22T12:20:08;100326.34;;;7.80;90.91
74218;BME280;62579;47.288;18.646;2023-11-22T12:22:33;100332.56;;;7.57;91.57
74218;BME280;62579;47.288;18.646;2023-11-22T12:24:58;100327.31;;;7.77;90.83
74218;BME280;62579;47.288;18.646;2023-11-22T12:27:24;100341.41;;;7.66;91.51
74218;BME280;62579;47.288;18.646;2023-11-22T12:29:49;100340.56;;;7.75;92.84
74218;BME280;62579;47.288;18.646;2023-11-22T12:32:15;100347.00;;;7.77;91.03
74218;BME280;62579;47.288;18.646;2023-11-22T12:34:43;100343.47;;;7.71;91.14
74218;BME280;62579;47.288;18.646;2023-11-22T12:37:08;100348.47;;;7.64;90.79
74218;BME280;62579;47.288;18.646;2023-11-22T12:39:35;100355.59;;;7.76;90.54
74218;BME280;62579;47.288;18.646;2023-11-22T12:42:01;100352.03;;;7.70;89.78
74218;BME280;62579;47.288;18.646;2023-11-22T12:44:28;100350.66;;;7.74;89.37
74218;BME280;62579;47.288;18.646;2023-11-22T12:46:53;100347.84;;;7.83;89.95